Time;durP1;ratioP1;P1;durP2;ratioP2;P2;SDS_P1;SDS_P2;PMS_P1;PMS_P2;Temp;Humidity;BMP_temperature;BMP_pressure;BME280_temperature;BME280_humidity;BME280_pressure;Samples;Min_cycle;Max_cycle;Signal;HPM_P1;HPM_P2
2023/01/28 00:00:07;;;;;;;15.35;9.60;;;2.40;99.90;;;;;;5108794;27;20474;-79
2023/01/28 00:02:34;;;;;;;17.63;10.32;;;2.40;99.90;;;;;;5110080;27;20038;-78
2023/01/28 00:05:00;;;;;;;17.25;10.00;;;2.40;99.90;;;;;;5113212;27;20437;-77
2023/01/28 00:07:26;;;;;;;14.30;9.40;;;2.30;99.90;;;;;;5110991;27;20050;-79
2023/01/28 00:09:52;;;;;;;17.35;10.35;;;2.30;99.90;;;;;;5110457;27;20443;-77
2023/01/28 00:12:17;;;;;;;16.40;10.27;;;2.30;99.90;;;;;;5102172;27;20043;-80
2023/01/28 00:14:45;;;;;;;15.13;9.05;;;2.30;99.90;;;;;;5104043;27;20450;-77
2023/01/28 00:17:10;;;;;;;15.68;10.05;;;2.30;99.90;;;;;;5110257;27;20101;-77
2023/01/28 00:19:37;;;;;;;15.20;9.40;;;2.20;99.90;;;;;;5103533;27;20039;-78
2023/01/28 00:22:03;;;;;;;15.48;9.50;;;2.20;99.90;;;;;;5102579;27;20031;-77
2023/01/28 00:24:29;;;;;;;16.80;9.68;;;2.20;99.90;;;;;;5097426;27;20138;-77
2023/01/28 00:26:55;;;;;;;15.80;9.40;;;2.20;99.90;;;;;;5105913;27;20081;-76
2023/01/28 00:29:20;;;;;;;15.15;9.60;;;2.20;99.90;;;;;;5102587;27;20031;-76
2023/01/28 00:31:46;;;;;;;15.05;9.82;;;2.20;99.90;;;;;;5103564;27;20163;-77
2023/01/28 00:34:11;;;;;;;15.10;9.52;;;2.20;99.90;;;;;;5100677;27;20060;-77
2023/01/28 00:36:38;;;;;;;14.23;9.50;;;2.20;99.90;;;;;;5123709;27;20039;-77
2023/01/28 00:39:05;;;;;;;14.75;9.60;;;2.20;99.90;;;;;;5103464;27;20492;-77
2023/01/28 00:41:30;;;;;;;14.95;9.57;;;2.20;99.90;;;;;;5102762;27;20121;-79
2023/01/28 00:43:56;;;;;;;14.93;9.30;;;2.20;99.90;;;;;;5098603;27;20042;-77
2023/01/28 00:46:25;;;;;;;15.95;10.02;;;2.20;99.90;;;;;;5102778;27;20438;-77
2023/01/28 00:48:50;;;;;;;14.40;8.95;;;2.20;99.90;;;;;;5124182;27;20039;-77
2023/01/28 00:51:18;;;;;;;15.25;9.68;;;2.20;99.90;;;;;;5105409;27;20500;-77
2023/01/28 00:53:44;;;;;;;16.35;9.77;;;2.20;99.90;;;;;;5104601;27;20443;-77
2023/01/28 00:56:12;;;;;;;14.65;9.25;;;2.20;99.90;;;;;;5107050;27;20049;-78
2023/01/28 00:58:38;;;;;;;14.02;7.65;;;2.20;99.90;;;;;;5097441;27;20572;-78
2023/01/28 01:01:14;;;;;;;15.48;8.48;;;2.30;99.90;;;;;;5084594;28;20545;-78
2023/01/28 01:03:40;;;;;;;12.50;7.10;;;2.20;99.90;;;;;;5103007;27;20043;-78
2023/01/28 01:06:06;;;;;;;15.23;8.75;;;2.20;99.90;;;;;;5101751;28;20049;-77
2023/01/28 01:08:41;;;;;;;13.23;6.30;;;2.20;99.90;;;;;;5100013;27;20038;-79
2023/01/28 01:11:09;;;;;;;15.93;8.95;;;2.20;99.90;;;;;;5088499;28;20031;-76
2023/01/28 01:13:36;;;;;;;14.20;8.23;;;2.20;99.90;;;;;;5102159;28;20046;-77
2023/01/28 01:16:07;;;;;;;15.13;8.13;;;2.20;99.90;;;;;;5123003;28;20050;-77
2023/01/28 01:18:33;;;;;;;13.40;7.82;;;2.20;99.90;;;;;;5093079;28;20031;-77
2023/01/28 01:20:59;;;;;;;14.82;8.73;;;2.20;99.90;;;;;;5112138;28;20125;-76
2023/01/28 01:23:31;;;;;;;15.30;8.52;;;2.20;99.90;;;;;;5108506;28;20118;-77
2023/01/28 01:25:57;;;;;;;13.63;8.60;;;2.10;99.90;;;;;;5111274;28;20091;-77
2023/01/28 01:28:23;;;;;;;14.25;7.72;;;2.10;99.90;;;;;;5110468;28;20039;-77
2023/01/28 01:30:49;;;;;;;15.27;8.57;;;2.10;99.90;;;;;;5106414;28;20123;-78
2023/01/28 01:33:15;;;;;;;14.15;8.18;;;2.10;99.90;;;;;;5109270;28;20038;-78
2023/01/28 01:35:41;;;;;;;13.60;7.28;;;2.10;99.90;;;;;;5101172;28;20485;-77
2023/01/28 01:38:07;;;;;;;13.10;7.68;;;2.10;99.90;;;;;;5109096;28;20122;-78
2023/01/28 01:40:33;;;;;;;15.80;8.48;;;2.10;99.90;;;;;;5112076;28;20564;-78
2023/01/28 01:42:58;;;;;;;12.93;7.90;;;2.00;99.90;;;;;;5109415;27;21269;-77
2023/01/28 01:45:26;;;;;;;16.95;8.90;;;2.00;99.90;;;;;;5111976;27;20074;-78
2023/01/28 01:48:02;;;;;;;14.20;8.02;;;2.00;99.90;;;;;;5109332;27;20045;-79
2023/01/28 01:50:42;;;;;;;15.32;8.70;;;2.00;99.90;;;;;;5111427;28;20039;-77
2023/01/28 01:53:12;;;;;;;14.55;8.13;;;1.90;99.90;;;;;;5107140;27;20039;-77
2023/01/28 01:55:43;;;;;;;16.58;9.40;;;2.00;99.90;;;;;;5111506;28;20047;-77
2023/01/28 01:58:13;;;;;;;17.65;9.10;;;1.90;99.90;;;;;;5111709;27;20043;-76
2023/01/28 02:00:40;;;;;;;16.92;8.55;;;1.90;99.90;;;;;;5111611;28;20450;-78
2023/01/28 02:03:06;;;;;;;16.92;8.15;;;1.90;99.90;;;;;;5109652;27;20043;-77
2023/01/28 02:05:32;;;;;;;16.75;9.30;;;1.90;99.90;;;;;;5116833;27;20046;-79
2023/01/28 02:08:19;;;;;;;16.88;9.30;;;1.90;99.90;;;;;;5114337;27;20137;-77
2023/01/28 02:10:45;;;;;;;16.58;9.13;;;1.90;99.90;;;;;;5112735;27;20092;-79
2023/01/28 02:13:12;;;;;;;17.90;8.98;;;1.80;99.90;;;;;;5112905;27;20686;-78
2023/01/28 02:15:37;;;;;;;20.27;9.85;;;1.80;99.90;;;;;;5112485;27;20095;-77
2023/01/28 02:18:03;;;;;;;19.42;10.55;;;1.80;99.90;;;;;;5110203;27;20051;-73
2023/01/28 02:20:47;;;;;;;18.00;10.43;;;1.80;99.90;;;;;;5117946;27;20046;-75
2023/01/28 02:23:41;;;;;;;19.25;10.73;;;1.80;99.90;;;;;;5107223;27;20063;-75
2023/01/28 02:26:31;;;;;;;17.85;10.15;;;1.70;99.90;;;;;;5113104;27;20039;-74
2023/01/28 02:29:19;;;;;;;20.50;10.73;;;1.70;99.90;;;;;;5109860;27;20039;-78
2023/01/28 02:31:56;;;;;;;19.95;10.50;;;1.70;99.90;;;;;;5109156;27;20031;-78
2023/01/28 02:34:25;;;;;;;16.15;8.32;;;1.70;99.90;;;;;;5111092;27;20130;-79
2023/01/28 02:37:00;;;;;;;18.52;9.63;;;1.70;99.90;;;;;;5108582;27;20042;-78
2023/01/28 02:39:34;;;;;;;18.75;10.40;;;1.70;99.90;;;;;;5110261;27;20039;-78
2023/01/28 02:42:12;;;;;;;19.42;10.55;;;1.70;99.90;;;;;;5114126;27;20039;-78
2023/01/28 02:44:38;;;;;;;20.17;10.93;;;1.70;99.90;;;;;;5092477;27;20699;-78
2023/01/28 02:50:03;;;;;;;22.63;12.05;;;1.70;99.90;;;;;;5113621;27;20054;-75
2023/01/28 02:56:16;;;;;;;21.23;11.75;;;1.60;99.90;;;;;;5103366;27;20424;-76
2023/01/28 02:58:54;;;;;;;25.70;12.30;;;1.60;99.90;;;;;;5100821;27;20082;-76
2023/01/28 03:01:37;;;;;;;23.33;12.10;;;1.70;99.90;;;;;;5107351;27;20043;-75
2023/01/28 03:04:23;;;;;;;24.27;12.25;;;1.60;99.90;;;;;;5106381;27;20043;-75
2023/01/28 03:06:53;;;;;;;24.77;12.68;;;1.60;99.90;;;;;;5090362;27;20027;-75
2023/01/28 03:09:21;;;;;;;22.58;11.95;;;1.60;99.90;;;;;;5104784;27;20224;-75
2023/01/28 03:38:21;;;;;;;25.85;12.68;;;1.60;99.90;;;;;;5107377;27;20046;-76
2023/01/28 03:41:01;;;;;;;21.55;12.27;;;1.60;99.90;;;;;;5107612;27;20054;-76
2023/01/28 03:43:30;;;;;;;22.27;12.25;;;1.60;99.90;;;;;;5105292;27;20046;-77
2023/01/28 03:45:56;;;;;;;23.33;12.43;;;1.60;99.90;;;;;;5105248;27;20481;-77
2023/01/28 03:48:25;;;;;;;23.38;13.10;;;1.60;99.90;;;;;;5107547;27;20042;-75
2023/01/28 03:50:52;;;;;;;24.45;12.50;;;1.70;99.90;;;;;;5107469;27;20066;-74
2023/01/28 03:53:18;;;;;;;24.40;12.93;;;1.60;99.90;;;;;;5105065;27;20058;-76
2023/01/28 03:55:45;;;;;;;22.90;12.38;;;1.70;99.90;;;;;;5107761;27;20077;-75
2023/01/28 03:58:11;;;;;;;22.75;12.00;;;1.60;99.90;;;;;;5106603;27;20043;-75
2023/01/28 04:00:40;;;;;;;24.85;12.07;;;1.70;99.90;;;;;;5107200;27;20100;-75
2023/01/28 04:03:17;;;;;;;23.40;12.77;;;1.60;99.90;;;;;;5123585;27;20047;-76
2023/01/28 04:06:04;;;;;;;22.08;12.27;;;1.70;99.90;;;;;;5107218;27;20035;-75
2023/01/28 04:08:30;;;;;;;23.23;12.43;;;1.60;99.90;;;;;;5106632;27;20428;-76
2023/01/28 04:10:56;;;;;;;22.55;11.63;;;1.60;99.90;;;;;;5087756;27;20039;-77
2023/01/28 04:13:22;;;;;;;21.20;11.88;;;1.60;99.90;;;;;;5102376;27;20398;-77
2023/01/28 04:15:48;;;;;;;22.80;12.45;;;1.60;99.90;;;;;;5107869;27;20061;-76
2023/01/28 04:18:14;;;;;;;22.15;12.35;;;1.60;99.90;;;;;;5101774;27;20039;-76
2023/01/28 04:20:39;;;;;;;23.80;13.05;;;1.60;99.90;;;;;;5107610;27;20035;-76
2023/01/28 04:23:06;;;;;;;22.52;12.85;;;1.60;99.90;;;;;;5122176;27;20035;-75
2023/01/28 04:25:32;;;;;;;24.38;12.73;;;1.60;99.90;;;;;;5104747;27;20040;-76
2023/01/28 04:27:58;;;;;;;23.20;12.52;;;1.60;99.90;;;;;;5104190;27;20049;-76
2023/01/28 04:30:24;;;;;;;23.55;12.63;;;1.60;99.90;;;;;;5105531;27;20031;-77
2023/01/28 04:32:50;;;;;;;23.48;12.63;;;1.60;99.90;;;;;;5106464;27;20046;-76
2023/01/28 04:35:18;;;;;;;23.40;12.77;;;1.60;99.90;;;;;;5107345;27;20035;-76
2023/01/28 04:37:44;;;;;;;23.08;12.30;;;1.60;99.90;;;;;;5102910;27;20171;-76
2023/01/28 04:40:11;;;;;;;25.27;13.25;;;1.60;99.90;;;;;;5107164;27;20557;-75
2023/01/28 04:42:37;;;;;;;24.40;13.30;;;1.60;99.90;;;;;;5103150;27;20039;-75
2023/01/28 04:45:04;;;;;;;26.35;13.05;;;1.60;99.90;;;;;;5106101;27;20031;-75
2023/01/28 04:47:29;;;;;;;24.67;12.63;;;1.60;99.90;;;;;;5102431;27;20091;-75
2023/01/28 04:49:55;;;;;;;23.17;12.82;;;1.60;99.90;;;;;;5110351;27;20039;-74
2023/01/28 04:52:21;;;;;;;23.30;12.82;;;1.60;99.90;;;;;;5105132;27;20031;-75
2023/01/28 04:54:46;;;;;;;24.92;12.90;;;1.60;99.90;;;;;;5107151;27;20129;-75
2023/01/28 04:57:12;;;;;;;23.30;12.07;;;1.60;99.90;;;;;;5102568;27;20046;-75
2023/01/28 04:59:37;;;;;;;23.10;12.18;;;1.60;99.90;;;;;;5106954;28;20536;-75
2023/01/28 05:02:03;;;;;;;22.00;12.52;;;1.60;99.90;;;;;;5105094;28;20100;-74
2023/01/28 05:04:28;;;;;;;22.45;12.68;;;1.50;99.90;;;;;;5108895;28;20035;-75
2023/01/28 05:06:54;;;;;;;22.63;12.18;;;1.50;99.90;;;;;;5102458;27;20046;-75
2023/01/28 05:09:20;;;;;;;21.80;12.52;;;1.50;99.90;;;;;;5103542;27;20043;-76
2023/01/28 05:11:45;;;;;;;24.58;12.05;;;1.50;99.90;;;;;;5100964;27;20466;-75
2023/01/28 05:14:11;;;;;;;24.42;12.05;;;1.50;99.90;;;;;;5106596;28;20039;-76
2023/01/28 05:16:36;;;;;;;23.95;12.77;;;1.50;99.90;;;;;;5101616;27;20181;-76
2023/01/28 05:19:02;;;;;;;23.60;12.25;;;1.50;99.90;;;;;;5106186;28;20458;-75
2023/01/28 05:21:28;;;;;;;26.23;12.90;;;1.50;99.90;;;;;;5102329;27;20031;-76
2023/01/28 05:23:53;;;;;;;22.90;12.70;;;1.50;99.90;;;;;;5107573;28;20512;-75
2023/01/28 05:26:19;;;;;;;22.80;12.07;;;1.50;99.90;;;;;;5105349;27;20043;-78
2023/01/28 05:28:45;;;;;;;22.10;12.15;;;1.50;99.90;;;;;;5106606;28;20038;-76
2023/01/28 05:31:11;;;;;;;22.92;13.00;;;1.50;99.90;;;;;;5104466;28;20035;-77
2023/01/28 05:33:37;;;;;;;23.02;12.15;;;1.50;99.90;;;;;;5104732;28;20078;-78
2023/01/28 05:36:03;;;;;;;25.58;13.32;;;1.50;99.90;;;;;;5104207;28;20414;-76
2023/01/28 05:38:28;;;;;;;26.75;12.85;;;1.50;99.90;;;;;;5107727;27;20072;-76
2023/01/28 05:40:54;;;;;;;24.10;12.52;;;1.50;99.90;;;;;;5109423;27;20039;-75
2023/01/28 05:43:19;;;;;;;22.85;12.98;;;1.50;99.90;;;;;;5105833;27;20505;-76
2023/01/28 05:45:46;;;;;;;25.50;12.93;;;1.50;99.90;;;;;;5104228;27;20031;-76
2023/01/28 05:48:12;;;;;;;22.73;12.32;;;1.50;99.90;;;;;;5107242;27;20058;-76
2023/01/28 05:50:38;;;;;;;23.52;11.73;;;1.50;99.90;;;;;;5106593;27;20404;-75
2023/01/28 05:53:07;;;;;;;22.25;12.38;;;1.50;99.90;;;;;;5090604;27;20079;-75
2023/01/28 05:55:32;;;;;;;25.30;13.07;;;1.50;99.90;;;;;;5123097;27;20035;-75
2023/01/28 05:57:58;;;;;;;23.73;12.38;;;1.50;99.90;;;;;;5109509;27;20042;-75
2023/01/28 06:00:24;;;;;;;24.13;12.07;;;1.50;99.90;;;;;;5107505;27;20533;-75
2023/01/28 06:02:53;;;;;;;25.70;12.52;;;1.50;99.90;;;;;;5103030;27;20034;-75
2023/01/28 06:05:19;;;;;;;23.73;13.07;;;1.50;99.90;;;;;;5110390;27;20478;-75
2023/01/28 06:07:45;;;;;;;23.02;12.85;;;1.50;99.90;;;;;;5106770;27;20031;-75
2023/01/28 06:10:11;;;;;;;24.63;12.20;;;1.50;99.90;;;;;;5110254;27;20491;-75
2023/01/28 06:12:37;;;;;;;22.55;11.32;;;1.50;99.90;;;;;;5108633;27;20031;-78
2023/01/28 06:15:03;;;;;;;22.98;12.13;;;1.50;99.90;;;;;;5106338;27;20073;-78
2023/01/28 06:17:28;;;;;;;24.13;12.40;;;1.50;99.90;;;;;;5105211;27;20047;-78
2023/01/28 06:19:54;;;;;;;25.23;12.88;;;1.60;99.90;;;;;;5106996;27;20509;-76
2023/01/28 06:22:19;;;;;;;24.83;13.07;;;1.50;99.90;;;;;;5106549;27;20740;-77
2023/01/28 06:24:45;;;;;;;22.27;12.43;;;1.50;99.90;;;;;;5109479;27;20050;-76
2023/01/28 06:27:11;;;;;;;24.02;12.48;;;1.50;99.90;;;;;;5103254;27;20039;-75
2023/01/28 06:29:36;;;;;;;21.05;11.82;;;1.50;99.90;;;;;;5108630;27;20367;-75
2023/01/28 06:32:02;;;;;;;24.85;13.32;;;1.50;99.90;;;;;;5122420;27;20300;-74
2023/01/28 06:34:27;;;;;;;22.73;11.98;;;1.40;99.90;;;;;;5106040;27;20046;-75
2023/01/28 06:36:53;;;;;;;25.65;13.40;;;1.40;99.90;;;;;;5108435;27;20043;-74
2023/01/28 06:39:25;;;;;;;24.98;12.85;;;1.40;99.90;;;;;;5101150;27;20039;-75
2023/01/28 06:41:51;;;;;;;25.90;12.30;;;1.40;99.90;;;;;;5105708;27;20470;-76
2023/01/28 06:44:17;;;;;;;24.98;12.27;;;1.40;99.90;;;;;;5108568;27;20039;-76
2023/01/28 06:46:42;;;;;;;25.40;13.38;;;1.40;99.90;;;;;;5108997;27;20040;-76
2023/01/28 06:49:08;;;;;;;24.17;12.35;;;1.40;99.90;;;;;;5106959;27;20034;-77
2023/01/28 06:51:33;;;;;;;24.17;12.65;;;1.40;99.90;;;;;;5108304;27;20419;-76
2023/01/28 06:53:59;;;;;;;25.90;13.15;;;1.40;99.90;;;;;;5086117;27;20046;-76
2023/01/28 06:56:25;;;;;;;22.85;11.70;;;1.40;99.90;;;;;;5116181;27;20307;-76
2023/01/28 06:58:50;;;;;;;26.73;13.48;;;1.40;99.90;;;;;;5116030;27;20134;-75
2023/01/28 07:01:16;;;;;;;24.80;12.82;;;1.40;99.90;;;;;;5120556;27;20047;-76
2023/01/28 07:03:42;;;;;;;23.17;12.52;;;1.30;99.90;;;;;;5113320;27;20110;-76
2023/01/28 07:06:07;;;;;;;23.98;12.02;;;1.30;99.90;;;;;;5111302;27;20037;-77
2023/01/28 07:08:33;;;;;;;23.27;12.25;;;1.40;99.90;;;;;;5112199;27;20035;-77
2023/01/28 07:10:59;;;;;;;22.98;11.35;;;1.40;99.90;;;;;;5106531;27;20042;-76
2023/01/28 07:13:25;;;;;;;22.40;11.65;;;1.30;99.90;;;;;;5124681;27;20125;-76
2023/01/28 07:15:51;;;;;;;22.90;11.70;;;1.40;99.90;;;;;;5110790;27;20072;-77
2023/01/28 07:18:16;;;;;;;25.55;12.40;;;1.40;99.90;;;;;;5102875;27;20027;-77
2023/01/28 07:20:42;;;;;;;22.95;11.23;;;1.40;99.90;;;;;;5107994;27;20035;-77
2023/01/28 07:23:08;;;;;;;23.75;12.10;;;1.40;99.90;;;;;;5105878;27;20046;-74
2023/01/28 07:25:33;;;;;;;26.98;12.55;;;1.40;99.90;;;;;;5108980;27;20065;-76
2023/01/28 07:27:59;;;;;;;23.05;11.88;;;1.40;99.90;;;;;;5112725;27;20363;-74
2023/01/28 07:30:25;;;;;;;23.42;12.48;;;1.40;99.90;;;;;;5114343;27;20168;-74
2023/01/28 07:32:54;;;;;;;24.45;12.35;;;1.30;99.90;;;;;;5115319;27;20027;-75
2023/01/28 07:35:20;;;;;;;26.00;12.50;;;1.30;99.90;;;;;;5106417;27;20039;-74
2023/01/28 07:37:54;;;;;;;22.60;12.35;;;1.40;99.90;;;;;;5105968;27;21617;-74
2023/01/28 07:40:20;;;;;;;25.65;12.40;;;1.30;99.90;;;;;;5103229;27;20054;-73
2023/01/28 07:42:46;;;;;;;25.67;13.27;;;1.40;99.90;;;;;;5108911;27;20124;-73
2023/01/28 07:45:11;;;;;;;23.05;12.02;;;1.40;99.90;;;;;;5107977;28;20079;-73
2023/01/28 07:47:37;;;;;;;22.98;11.40;;;1.40;99.90;;;;;;5101113;27;20039;-73
2023/01/28 07:50:03;;;;;;;22.83;11.90;;;1.30;99.90;;;;;;5113276;27;20078;-74
2023/01/28 07:52:28;;;;;;;23.52;12.18;;;1.30;99.90;;;;;;5107867;27;20066;-74
2023/01/28 07:54:54;;;;;;;21.80;12.05;;;1.30;99.90;;;;;;5122915;27;20061;-72
2023/01/28 07:57:22;;;;;;;24.75;12.43;;;1.30;99.90;;;;;;5110913;27;20092;-74
2023/01/28 07:59:48;;;;;;;23.63;12.18;;;1.30;99.90;;;;;;5108669;27;20053;-75
2023/01/28 08:02:14;;;;;;;24.77;12.82;;;1.30;99.90;;;;;;5090121;28;20686;-75
2023/01/28 08:04:39;;;;;;;25.73;13.60;;;1.30;99.90;;;;;;5110229;27;20070;-74
2023/01/28 08:07:05;;;;;;;24.92;12.38;;;1.30;99.90;;;;;;5114730;27;20089;-73
2023/01/28 08:09:33;;;;;;;26.13;13.43;;;1.30;99.90;;;;;;5113547;27;20039;-74
2023/01/28 08:12:00;;;;;;;26.17;13.43;;;1.30;99.90;;;;;;5106454;27;20058;-73
2023/01/28 08:14:26;;;;;;;25.58;12.65;;;1.30;99.90;;;;;;5108601;27;20043;-72
2023/01/28 08:16:52;;;;;;;24.92;12.70;;;1.30;99.90;;;;;;5116125;27;20386;-73
2023/01/28 08:19:17;;;;;;;23.75;12.40;;;1.20;99.90;;;;;;5104619;27;20040;-73
2023/01/28 08:21:43;;;;;;;25.13;12.07;;;1.20;99.90;;;;;;5112617;27;20062;-74
2023/01/28 08:24:08;;;;;;;22.77;11.85;;;1.10;99.90;;;;;;5106030;27;20043;-73
2023/01/28 08:26:34;;;;;;;22.40;12.38;;;1.00;99.90;;;;;;5107504;27;20504;-74
2023/01/28 08:29:00;;;;;;;22.35;11.40;;;0.90;99.90;;;;;;5108037;27;20122;-73
2023/01/28 08:31:27;;;;;;;22.92;12.43;;;0.80;99.90;;;;;;5112483;27;20035;-75
2023/01/28 08:33:53;;;;;;;23.23;11.43;;;0.70;99.90;;;;;;5099705;27;20402;-75
2023/01/28 08:36:19;;;;;;;23.75;12.52;;;0.60;99.90;;;;;;5102285;27;20054;-75
2023/01/28 08:38:44;;;;;;;25.73;12.85;;;0.60;99.90;;;;;;5110071;27;20039;-75
2023/01/28 08:41:10;;;;;;;25.25;12.98;;;0.70;99.90;;;;;;5089836;27;20035;-74
2023/01/28 08:43:36;;;;;;;25.17;12.73;;;0.90;99.90;;;;;;5106944;27;20085;-76
2023/01/28 08:46:05;;;;;;;25.95;12.90;;;1.00;99.90;;;;;;5112491;27;20034;-75
2023/01/28 08:48:31;;;;;;;27.00;13.82;;;1.10;99.90;;;;;;5111239;27;20386;-74
2023/01/28 08:50:58;;;;;;;22.58;11.77;;;1.30;99.90;;;;;;5114578;27;20035;-72
2023/01/28 08:53:24;;;;;;;25.02;12.45;;;1.40;99.90;;;;;;5107394;27;20500;-74
2023/01/28 08:55:49;;;;;;;24.45;12.00;;;1.40;99.90;;;;;;5112563;27;20031;-73
2023/01/28 08:58:17;;;;;;;26.17;12.23;;;1.50;99.90;;;;;;5104865;27;20536;-73
2023/01/28 09:00:44;;;;;;;25.63;13.30;;;1.50;99.90;;;;;;5114535;27;20207;-74
2023/01/28 09:03:10;;;;;;;23.23;12.13;;;1.40;99.90;;;;;;5106517;28;20043;-72
2023/01/28 09:05:37;;;;;;;24.63;12.63;;;1.30;99.90;;;;;;5098751;27;20046;-74
2023/01/28 09:08:04;;;;;;;23.27;12.52;;;1.30;99.90;;;;;;5099945;27;20095;-72
2023/01/28 09:10:30;;;;;;;26.80;13.23;;;1.30;99.90;;;;;;5117434;27;20031;-74
2023/01/28 09:12:56;;;;;;;23.70;12.15;;;1.40;99.90;;;;;;5106237;27;20101;-71
2023/01/28 09:15:21;;;;;;;25.23;12.85;;;1.40;99.90;;;;;;5109516;28;20039;-74
2023/01/28 09:17:47;;;;;;;23.63;12.23;;;1.50;99.90;;;;;;5109744;27;20534;-75
2023/01/28 09:20:13;;;;;;;26.80;13.23;;;1.60;99.90;;;;;;5104471;28;20039;-74
2023/01/28 09:22:38;;;;;;;30.35;13.32;;;1.60;99.90;;;;;;5108807;28;20039;-73
2023/01/28 09:25:04;;;;;;;26.58;13.40;;;1.70;99.90;;;;;;5096772;27;20493;-74
2023/01/28 09:27:30;;;;;;;28.45;12.73;;;1.80;99.90;;;;;;5110363;28;20031;-74
2023/01/28 09:29:56;;;;;;;29.05;13.63;;;1.90;99.90;;;;;;5106357;28;20071;-72
2023/01/28 09:32:23;;;;;;;27.98;13.65;;;2.00;99.90;;;;;;5100913;28;20449;-74
2023/01/28 09:34:49;;;;;;;27.25;12.68;;;2.00;99.90;;;;;;5104490;28;20057;-75
2023/01/28 09:37:14;;;;;;;24.13;12.43;;;2.10;99.90;;;;;;5111556;28;20114;-73
2023/01/28 09:39:40;;;;;;;24.35;12.38;;;2.20;99.90;;;;;;5091277;28;20043;-73
2023/01/28 09:42:11;;;;;;;24.52;12.75;;;2.20;99.90;;;;;;5115086;28;20035;-70
2023/01/28 09:44:57;;;;;;;24.40;12.18;;;2.20;99.90;;;;;;5103422;28;20118;-70
2023/01/28 09:47:42;;;;;;;21.45;11.45;;;2.30;99.90;;;;;;5104907;27;20046;-70
2023/01/28 09:50:17;;;;;;;22.33;11.70;;;2.30;99.90;;;;;;5126937;27;20100;-69
2023/01/28 09:52:44;;;;;;;21.73;11.30;;;2.40;99.90;;;;;;5110874;28;20112;-73
2023/01/28 09:55:45;;;;;;;24.85;12.77;;;2.30;99.90;;;;;;5104663;27;20051;-70
2023/01/28 09:58:14;;;;;;;24.60;12.63;;;2.30;99.90;;;;;;5087485;27;20047;-72
2023/01/28 10:01:01;;;;;;;23.85;12.43;;;2.20;99.90;;;;;;5101273;28;20614;-73
2023/01/28 10:03:46;;;;;;;25.13;12.63;;;2.20;99.90;;;;;;5105163;27;20497;-72
2023/01/28 10:06:33;;;;;;;26.73;12.98;;;2.30;99.90;;;;;;5110790;28;20044;-71
2023/01/28 10:09:18;;;;;;;26.65;12.98;;;2.30;99.90;;;;;;5105757;28;20044;-70
2023/01/28 10:12:07;;;;;;;27.42;13.98;;;2.40;99.90;;;;;;5108278;28;20035;-71
2023/01/28 10:14:38;;;;;;;25.80;12.57;;;2.50;99.90;;;;;;5060865;27;20138;-72
2023/01/28 10:17:26;;;;;;;25.65;12.65;;;2.60;99.90;;;;;;5112000;28;20035;-72
2023/01/28 10:20:03;;;;;;;23.95;11.93;;;2.60;99.90;;;;;;5109221;28;20069;-72
2023/01/28 10:22:34;;;;;;;28.23;12.80;;;2.70;99.90;;;;;;5100817;27;20490;-72
2023/01/28 10:25:05;;;;;;;25.33;13.43;;;2.80;99.90;;;;;;5104756;27;20416;-70
2023/01/28 10:27:36;;;;;;;24.95;12.95;;;2.80;99.90;;;;;;5112174;27;20120;-72
2023/01/28 10:30:19;;;;;;;21.67;11.75;;;2.90;99.90;;;;;;5114083;27;20030;-71
2023/01/28 10:33:09;;;;;;;23.80;12.68;;;2.90;99.90;;;;;;5109819;28;20039;-74
2023/01/28 10:35:39;;;;;;;24.08;11.98;;;2.90;99.90;;;;;;5111703;27;20043;-74
2023/01/28 10:38:08;;;;;;;21.05;10.75;;;3.00;99.90;;;;;;5089856;27;20035;-71
2023/01/28 10:40:34;;;;;;;22.08;10.95;;;3.00;99.90;;;;;;5111473;27;20075;-73
2023/01/28 10:43:00;;;;;;;19.60;11.10;;;3.00;99.90;;;;;;5122291;27;20066;-71
2023/01/28 10:45:30;;;;;;;20.30;11.57;;;3.10;99.90;;;;;;5110306;27;20519;-73
2023/01/28 10:48:01;;;;;;;20.13;10.32;;;3.10;99.90;;;;;;5118881;27;20035;-72
2023/01/28 10:50:28;;;;;;;21.63;11.43;;;3.10;99.90;;;;;;5106879;27;20035;-70
2023/01/28 10:53:00;;;;;;;18.23;9.57;;;3.20;99.90;;;;;;5112835;27;20039;-73
2023/01/28 10:55:55;;;;;;;19.73;9.93;;;3.20;99.90;;;;;;5102314;27;20038;-72
2023/01/28 10:58:24;;;;;;;18.42;10.23;;;3.30;99.90;;;;;;5107044;27;20109;-71
2023/01/28 11:00:58;;;;;;;23.35;11.45;;;3.30;99.90;;;;;;5112299;27;20401;-71
2023/01/28 11:03:29;;;;;;;19.90;10.68;;;3.40;99.90;;;;;;5105522;28;20177;-70
2023/01/28 11:05:57;;;;;;;18.73;9.43;;;3.40;99.90;;;;;;5116704;27;20039;-71
2023/01/28 11:08:25;;;;;;;17.70;9.90;;;3.50;99.90;;;;;;5116363;27;20111;-71
2023/01/28 11:10:52;;;;;;;19.35;10.32;;;3.50;99.90;;;;;;5132825;27;20031;-73
2023/01/28 11:13:19;;;;;;;17.85;9.40;;;3.50;99.90;;;;;;5105987;27;20486;-72
2023/01/28 11:16:06;;;;;;;16.42;9.27;;;3.60;99.90;;;;;;5115316;27;20069;-71
2023/01/28 11:18:38;;;;;;;20.73;9.82;;;3.60;99.90;;;;;;5094002;27;20139;-72
2023/01/28 11:21:12;;;;;;;19.48;10.20;;;3.70;99.90;;;;;;5124050;27;20499;-71
2023/01/28 11:23:53;;;;;;;17.67;9.88;;;3.70;99.90;;;;;;5104900;27;20521;-71
2023/01/28 11:26:37;;;;;;;20.40;10.27;;;3.80;99.90;;;;;;5107385;27;20042;-71
2023/01/28 11:29:03;;;;;;;20.95;10.68;;;3.80;99.90;;;;;;5106176;27;20045;-70
2023/01/28 11:31:40;;;;;;;19.00;10.48;;;3.90;99.90;;;;;;5103855;27;20038;-70
2023/01/28 11:34:06;;;;;;;17.52;9.10;;;4.00;99.90;;;;;;5103293;27;20039;-71
2023/01/28 11:36:33;;;;;;;19.42;10.43;;;4.10;99.90;;;;;;5108173;27;20039;-72
2023/01/28 11:39:15;;;;;;;17.30;9.75;;;4.10;99.90;;;;;;5101571;27;20043;-73
2023/01/28 11:41:41;;;;;;;17.77;9.98;;;4.20;99.90;;;;;;5124196;27;20031;-71
2023/01/28 11:44:23;;;;;;;18.48;10.25;;;4.20;99.90;;;;;;5107048;27;20062;-71
2023/01/28 11:46:58;;;;;;;19.08;10.30;;;4.40;99.90;;;;;;5105315;27;20527;-69
2023/01/28 11:49:56;;;;;;;17.42;9.30;;;4.40;99.90;;;;;;5106248;27;20027;-73
2023/01/28 11:52:45;;;;;;;17.92;9.65;;;4.60;99.90;;;;;;5088968;27;20134;-70
2023/01/28 11:55:16;;;;;;;16.85;9.93;;;4.60;99.90;;;;;;5101782;27;20509;-75
2023/01/28 11:58:00;;;;;;;18.63;10.07;;;4.70;99.90;;;;;;5099608;27;20470;-75
2023/01/28 12:00:40;;;;;;;15.70;9.07;;;4.70;99.90;;;;;;5103468;27;20066;-74
2023/01/28 12:03:30;;;;;;;15.13;8.70;;;4.80;99.90;;;;;;5101964;27;20485;-75
2023/01/28 12:06:21;;;;;;;14.77;8.73;;;4.80;99.90;;;;;;5102042;27;20079;-72
2023/01/28 12:09:22;;;;;;;16.38;8.18;;;4.90;99.90;;;;;;5101167;27;20047;-75
2023/01/28 12:12:12;;;;;;;16.55;9.30;;;4.90;99.90;;;;;;5104490;27;20481;-73
2023/01/28 12:15:02;;;;;;;15.60;7.72;;;4.90;99.90;;;;;;5108477;27;20035;-75
2023/01/28 12:18:16;;;;;;;14.82;8.18;;;4.80;99.90;;;;;;5100479;27;20035;-76
2023/01/28 12:21:09;;;;;;;18.77;9.57;;;4.80;99.90;;;;;;5102462;27;20039;-73
2023/01/28 12:24:13;;;;;;;17.65;10.00;;;4.70;99.90;;;;;;5108844;27;20057;-74
2023/01/28 12:27:23;;;;;;;17.60;8.38;;;4.70;99.90;;;;;;5100515;27;20076;-74
2023/01/28 12:29:52;;;;;;;20.13;10.88;;;4.70;99.90;;;;;;5039877;28;20440;-72
2023/01/28 12:32:30;;;;;;;17.92;10.05;;;4.80;99.90;;;;;;5030218;28;20072;-74
2023/01/28 12:35:17;;;;;;;18.05;9.48;;;4.80;99.90;;;;;;5078235;27;20043;-69
2023/01/28 12:37:52;;;;;;;19.33;10.48;;;4.90;99.90;;;;;;5097658;27;20125;-68
2023/01/28 12:40:25;;;;;;;20.15;10.90;;;4.90;99.90;;;;;;5097405;27;20045;-68
2023/01/28 12:43:02;;;;;;;18.83;10.45;;;4.80;99.90;;;;;;5096535;28;20080;-73
2023/01/28 12:45:44;;;;;;;23.23;10.15;;;4.80;99.90;;;;;;5110817;27;20058;-72
2023/01/28 12:48:23;;;;;;;20.40;10.00;;;4.70;99.90;;;;;;5112716;27;20039;-71
2023/01/28 12:50:57;;;;;;;23.38;10.38;;;4.80;99.90;;;;;;5102331;27;20100;-71
2023/01/28 12:53:33;;;;;;;18.65;9.75;;;4.70;99.90;;;;;;5114938;27;20093;-71
2023/01/28 12:56:24;;;;;;;20.13;8.95;;;4.60;99.90;;;;;;5109515;27;20404;-70
2023/01/28 12:58:57;;;;;;;18.90;9.82;;;4.50;99.90;;;;;;5095242;27;20039;-71
2023/01/28 13:01:39;;;;;;;19.05;10.48;;;4.30;99.90;;;;;;5108510;28;20103;-73
2023/01/28 13:04:32;;;;;;;19.20;9.57;;;4.20;99.90;;;;;;5108405;27;20044;-71
2023/01/28 13:07:00;;;;;;;;;;;4.10;99.90;;;;;;5103329;28;20104;-72
2023/01/28 13:09:27;;;;;;;19.42;8.80;;;4.20;99.90;;;;;;5106395;28;19961;-72
2023/01/28 13:11:57;;;;;;;19.17;9.35;;;4.20;99.90;;;;;;5112229;27;20035;-72
2023/01/28 13:14:30;;;;;;;19.27;9.32;;;4.30;99.90;;;;;;5106813;28;20104;-72
2023/01/28 13:17:07;;;;;;;17.30;8.48;;;4.40;99.90;;;;;;5095160;28;20047;-70
2023/01/28 13:19:40;;;;;;;18.33;8.52;;;4.50;99.90;;;;;;5101967;28;20097;-72
2023/01/28 13:22:26;;;;;;;16.83;8.27;;;4.50;99.90;;;;;;5110702;28;20077;-71
2023/01/28 13:24:52;;;;;;;18.35;8.63;;;4.60;99.90;;;;;;5102483;28;20092;-70
2023/01/28 13:27:24;;;;;;;18.17;9.52;;;4.60;99.90;;;;;;5118228;28;20047;-71
2023/01/28 13:30:00;;;;;;;16.10;9.13;;;4.50;99.90;;;;;;5106132;28;20134;-71